Time;durP1;ratioP1;P1;durP2;ratioP2;P2;SDS_P1;SDS_P2;PMS_P1;PMS_P2;Temp;Humidity;BMP_temperature;BMP_pressure;BME280_temperature;BME280_humidity;BME280_pressure;Samples;Min_cycle;Max_cycle;Signal;HPM_P1;HPM_P2
2023/12/12 00:01:01;;;;;;;21.10;19.20;;;;;;;8.48;100.00;95592.97;5024138;28;20022;-66
2023/12/12 00:03:26;;;;;;;20.52;18.75;;;;;;;8.46;100.00;95588.69;5026721;28;20022;-67
2023/12/12 00:05:52;;;;;;;16.90;14.95;;;;;;;8.56;100.00;95580.88;5026887;28;20026;-67
2023/12/12 00:08:17;;;;;;;12.60;10.50;;;;;;;8.54;100.00;95574.94;5022525;28;20553;-66
2023/12/12 00:10:42;;;;;;;12.52;11.23;;;;;;;8.42;100.00;95576.78;5027616;28;20132;-66
2023/12/12 00:13:08;;;;;;;10.98;9.93;;;;;;;8.35;100.00;95575.63;5031672;28;20095;-66
2023/12/12 00:15:33;;;;;;;13.35;12.05;;;;;;;8.52;100.00;95584.75;5027362;28;20021;-66
2023/12/12 00:17:59;;;;;;;14.02;12.70;;;;;;;8.45;100.00;95591.41;5029663;28;20034;-66
2023/12/12 00:20:24;;;;;;;13.57;12.27;;;;;;;8.53;100.00;95596.03;5027561;28;20026;-67
2023/12/12 00:22:49;;;;;;;12.85;11.65;;;;;;;8.45;100.00;95613.25;5024074;28;20116;-66
2023/12/12 00:25:15;;;;;;;10.45;9.43;;;;;;;8.59;100.00;95622.59;5019611;28;20028;-67
2023/12/12 00:27:40;;;;;;;12.00;9.10;;;;;;;8.78;100.00;95621.03;5022187;28;20026;-66
2023/12/12 00:30:06;;;;;;;10.13;8.70;;;;;;;8.65;100.00;95620.41;5029912;28;20025;-66
2023/12/12 00:32:32;;;;;;;13.32;10.73;;;;;;;8.52;100.00;95613.59;5026285;28;20497;-66
2023/12/12 00:34:58;;;;;;;13.63;11.60;;;;;;;8.45;100.00;95617.66;5030239;28;20163;-67
2023/12/12 00:37:24;;;;;;;13.02;11.73;;;;;;;8.42;100.00;95642.38;5020226;28;20034;-66
2023/12/12 00:39:49;;;;;;;14.57;12.15;;;;;;;8.37;100.00;95646.34;5028885;28;20033;-66
2023/12/12 00:42:14;;;;;;;12.77;11.45;;;;;;;8.20;100.00;95656.44;5023965;28;20034;-67
2023/12/12 00:44:40;;;;;;;22.15;17.63;;;;;;;8.19;100.00;95659.22;5029766;28;20076;-66
2023/12/12 00:47:05;;;;;;;17.13;15.32;;;;;;;8.17;100.00;95659.34;5027357;28;20556;-66
2023/12/12 00:49:31;;;;;;;18.50;16.65;;;;;;;8.23;100.00;95658.00;5026502;28;20113;-66
2023/12/12 00:51:56;;;;;;;22.48;19.73;;;;;;;8.28;100.00;95656.63;5024426;28;20104;-67
2023/12/12 00:54:22;;;;;;;56.72;25.33;;;;;;;8.28;100.00;95655.81;5031723;28;20101;-66
2023/12/12 00:56:47;;;;;;;70.45;27.25;;;;;;;8.21;100.00;95644.19;5029261;28;20025;-66
2023/12/12 00:59:14;;;;;;;45.15;25.60;;;;;;;8.20;100.00;95637.28;5026168;28;20034;-66
2023/12/12 01:01:39;;;;;;;52.97;25.92;;;;;;;8.22;100.00;95627.50;5021613;28;20068;-67
2023/12/12 01:04:05;;;;;;;32.03;26.30;;;;;;;8.15;100.00;95632.41;5024071;28;20030;-67
2023/12/12 01:06:31;;;;;;;36.95;25.75;;;;;;;8.09;100.00;95622.44;5027890;28;20029;-67
2023/12/12 01:08:56;;;;;;;30.95;26.23;;;;;;;8.13;100.00;95615.97;5024953;28;20013;-66
2023/12/12 01:11:22;;;;;;;29.65;26.65;;;;;;;8.09;100.00;95618.00;5028579;28;20021;-66
2023/12/12 01:13:48;;;;;;;40.80;34.63;;;;;;;8.06;100.00;95607.78;5033513;28;20509;-67
2023/12/12 01:16:13;;;;;;;39.08;33.45;;;;;;;8.05;100.00;95613.16;5020600;28;20108;-67
2023/12/12 01:18:39;;;;;;;37.33;28.42;;;;;;;8.01;100.00;95621.28;5021562;28;20145;-66
2023/12/12 01:21:05;;;;;;;28.15;25.33;;;;;;;7.99;100.00;95604.03;5025983;28;20017;-66
2023/12/12 01:23:50;;;;;;;26.48;23.77;;;;;;;7.99;100.00;95612.69;5029980;28;20037;-66
2023/12/12 01:26:17;;;;;;;23.73;21.42;;;;;;;8.00;100.00;95619.59;5024316;28;20030;-66
2023/12/12 01:28:42;;;;;;;23.92;21.73;;;;;;;8.01;100.00;95621.28;5028279;28;20032;-66
2023/12/12 01:31:08;;;;;;;23.48;21.13;;;;;;;8.07;100.00;95629.56;5027582;28;20661;-67
2023/12/12 01:33:33;;;;;;;24.70;22.40;;;;;;;8.08;100.00;95626.84;5024371;28;20119;-66
2023/12/12 01:35:58;;;;;;;25.83;23.23;;;;;;;8.26;100.00;95627.06;5023112;28;20030;-67
2023/12/12 01:38:24;;;;;;;24.42;22.02;;;;;;;8.12;100.00;95623.00;5027194;28;20033;-66
2023/12/12 01:40:49;;;;;;;25.80;23.15;;;;;;;8.10;100.00;95627.53;5030173;28;20024;-67
2023/12/12 01:43:25;;;;;;;23.20;20.85;;;;;;;8.07;100.00;95619.09;5022294;28;20029;-67
2023/12/12 01:45:53;;;;;;;22.60;20.50;;;;;;;8.05;100.00;95621.00;5027312;28;20021;-67
2023/12/12 01:48:20;;;;;;;23.10;20.90;;;;;;;8.03;100.00;95614.09;5028050;28;20503;-66
2023/12/12 01:50:46;;;;;;;22.35;20.27;;;;;;;8.02;100.00;95617.69;5024414;28;20029;-66
2023/12/12 01:53:13;;;;;;;22.27;20.08;;;;;;;7.99;100.00;95628.44;5026450;28;20096;-66
2023/12/12 01:55:38;;;;;;;34.17;30.48;;;;;;;7.98;100.00;95612.84;5024107;28;20532;-66
2023/12/12 01:58:04;;;;;;;39.17;34.92;;;;;;;7.99;100.00;95609.28;5023286;28;20120;-67
2023/12/12 02:00:31;;;;;;;38.33;33.03;;;;;;;8.01;100.00;95613.41;5028358;28;20485;-66
2023/12/12 02:02:57;;;;;;;34.55;30.30;;;;;;;8.00;100.00;95618.78;5025707;28;20090;-66
2023/12/12 02:05:25;;;;;;;29.52;26.38;;;;;;;8.00;100.00;95614.38;5024770;28;20052;-66
2023/12/12 02:07:52;;;;;;;20.35;18.20;;;;;;;8.02;100.00;95609.00;5025529;28;20025;-66
2023/12/12 02:10:19;;;;;;;22.30;20.20;;;;;;;7.99;100.00;95601.41;5026519;28;20841;-66
2023/12/12 02:12:44;;;;;;;23.05;20.52;;;;;;;8.02;100.00;95598.53;5020671;28;20082;-66
2023/12/12 02:15:09;;;;;;;20.95;18.85;;;;;;;7.95;100.00;95592.09;5025881;28;20021;-66
2023/12/12 02:17:35;;;;;;;73.30;57.20;;;;;;;7.89;100.00;95581.19;5029457;28;20461;-66
2023/12/12 02:20:00;;;;;;;27.35;24.55;;;;;;;7.93;100.00;95563.41;5028177;28;20080;-66
2023/12/12 02:22:26;;;;;;;19.45;17.48;;;;;;;7.94;100.00;95559.00;5026492;28;20506;-66
2023/12/12 02:24:51;;;;;;;19.02;17.15;;;;;;;7.84;100.00;95551.06;5022590;28;20031;-66
2023/12/12 02:27:18;;;;;;;25.73;21.25;;;;;;;7.81;100.00;95556.56;5025251;28;20029;-66
2023/12/12 02:29:43;;;;;;;26.13;22.17;;;;;;;7.81;100.00;95552.16;5026003;28;20072;-66
2023/12/12 02:32:08;;;;;;;30.20;25.67;;;;;;;7.83;100.00;95558.09;5028791;28;20025;-66
2023/12/12 02:34:34;;;;;;;30.25;23.67;;;;;;;7.84;100.00;95557.16;5027524;28;20026;-66
2023/12/12 02:36:59;;;;;;;33.38;25.70;;;;;;;7.84;100.00;95556.31;5023193;28;20025;-66
2023/12/12 02:39:24;;;;;;;29.75;25.70;;;;;;;7.81;100.00;95552.16;5028835;28;20092;-66
2023/12/12 02:41:50;;;;;;;26.45;23.95;;;;;;;7.80;100.00;95552.28;5027554;28;20034;-66
2023/12/12 02:44:15;;;;;;;24.98;22.50;;;;;;;7.82;100.00;95566.09;5022225;28;20026;-66
2023/12/12 02:46:40;;;;;;;27.38;24.67;;;;;;;7.81;100.00;95551.31;5021760;28;20116;-66
2023/12/12 02:49:06;;;;;;;29.08;26.08;;;;;;;7.83;100.00;95557.25;5022789;28;20034;-66
2023/12/12 02:51:32;;;;;;;21.27;19.17;;;;;;;7.88;100.00;95555.94;5024901;28;20100;-66
2023/12/12 02:53:58;;;;;;;18.50;16.80;;;;;;;7.92;100.00;95558.28;5023013;28;20053;-66
2023/12/12 02:56:23;;;;;;;21.88;19.77;;;;;;;7.92;100.00;95556.50;5026365;28;20439;-66
2023/12/12 02:58:48;;;;;;;22.08;19.77;;;;;;;7.91;100.00;95560.09;5020034;28;20022;-66
2023/12/12 03:01:14;;;;;;;21.92;19.90;;;;;;;7.92;100.00;95547.81;5022588;28;20494;-66
2023/12/12 03:03:39;;;;;;;21.50;19.48;;;;;;;7.91;100.00;95552.22;5028655;28;20029;-66
2023/12/12 03:06:06;;;;;;;36.92;31.85;;;;;;;7.91;100.00;95552.22;5020876;28;20025;-66
2023/12/12 03:08:32;;;;;;;29.10;20.98;;;;;;;7.94;100.00;95545.88;5022981;28;20037;-66
2023/12/12 03:10:57;;;;;;;64.63;22.13;;;;;;;7.92;100.00;95534.69;5029518;28;20044;-65
2023/12/12 03:13:22;;;;;;;64.65;22.95;;;;;;;7.87;100.00;95529.88;5024432;28;20021;-66
2023/12/12 03:15:48;;;;;;;62.30;24.38;;;;;;;7.82;100.00;95535.47;5030538;28;20061;-65
2023/12/12 03:18:13;;;;;;;57.75;22.95;;;;;;;7.81;100.00;95540.84;5023445;28;20053;-66
2023/12/12 03:20:38;;;;;;;286.35;127.38;;;;;;;7.76;100.00;95543.88;5033765;28;20025;-66
2023/12/12 03:23:04;;;;;;;167.93;119.90;;;;;;;7.76;100.00;95535.16;5025250;28;20076;-66
2023/12/12 03:25:29;;;;;;;267.58;103.32;;;;;;;7.79;100.00;95534.91;5025967;28;20029;-66
2023/12/12 03:27:54;;;;;;;76.22;37.30;;;;;;;7.76;100.00;95519.44;5025056;28;20057;-66
2023/12/12 03:30:20;;;;;;;41.78;34.70;;;;;;;7.75;100.00;95523.84;5031244;28;20026;-66
2023/12/12 03:32:45;;;;;;;67.68;26.10;;;;;;;7.76;100.00;95506.34;5025857;28;20116;-66
2023/12/12 03:35:11;;;;;;;56.47;23.63;;;;;;;7.77;100.00;95505.38;5030290;28;20033;-66
2023/12/12 03:37:36;;;;;;;151.65;113.18;;;;;;;7.77;100.00;95503.59;5027860;28;20104;-66
2023/12/12 03:40:03;;;;;;;83.00;57.78;;;;;;;7.80;100.00;95512.97;5033193;28;20033;-66
2023/12/12 03:42:28;;;;;;;63.75;50.40;;;;;;;7.81;100.00;95507.63;5027976;28;20034;-66
2023/12/12 03:44:54;;;;;;;36.05;22.48;;;;;;;7.79;100.00;95506.06;5023942;28;20043;-66
2023/12/12 03:47:19;;;;;;;44.53;22.38;;;;;;;7.78;100.00;95515.75;5032213;28;20475;-66
2023/12/12 03:49:44;;;;;;;49.88;26.48;;;;;;;7.82;100.00;95509.28;5028130;28;20435;-66
2023/12/12 03:52:10;;;;;;;53.75;26.58;;;;;;;7.83;100.00;95510.09;5033226;28;20099;-66
2023/12/12 03:54:35;;;;;;;32.03;27.27;;;;;;;7.83;100.00;95507.47;5029201;28;20477;-66
2023/12/12 03:57:01;;;;;;;40.53;28.33;;;;;;;7.83;100.00;95504.84;5029625;28;20048;-66
2023/12/12 03:59:26;;;;;;;52.47;27.45;;;;;;;7.85;100.00;95510.81;5030064;28;20026;-66
2023/12/12 04:01:51;;;;;;;52.47;28.90;;;;;;;7.85;100.00;95503.75;5027119;28;20716;-66
2023/12/12 04:04:20;;;;;;;32.60;26.08;;;;;;;7.86;100.00;95497.56;5033881;28;20030;-66
2023/12/12 04:06:48;;;;;;;33.33;26.30;;;;;;;7.85;100.00;95502.94;5032544;28;20064;-66
2023/12/12 04:09:14;;;;;;;37.30;25.52;;;;;;;7.84;100.00;95509.13;5026082;28;20137;-65
2023/12/12 04:11:40;;;;;;;27.80;20.38;;;;;;;7.82;100.00;95505.81;5024205;28;20380;-66
2023/12/12 04:14:05;;;;;;;58.30;29.23;;;;;;;7.83;100.00;95494.34;5030998;28;20451;-66
2023/12/12 04:16:31;;;;;;;37.53;28.15;;;;;;;7.86;100.00;95494.94;5031722;28;20383;-66
2023/12/12 04:18:56;;;;;;;42.22;27.90;;;;;;;7.87;100.00;95490.53;5026427;28;20060;-66
2023/12/12 04:21:21;;;;;;;77.50;27.63;;;;;;;7.91;100.00;95480.59;5031023;28;20052;-66
2023/12/12 04:23:47;;;;;;;48.17;29.42;;;;;;;7.91;100.00;95481.44;5042893;28;20398;-66
2023/12/12 04:26:12;;;;;;;38.20;28.65;;;;;;;7.88;100.00;95481.72;5020620;28;20037;-66
2023/12/12 04:28:38;;;;;;;61.25;29.15;;;;;;;7.95;100.00;95479.38;5034186;28;20031;-66
2023/12/12 04:31:04;;;;;;;58.92;29.33;;;;;;;7.88;100.00;95485.16;5028531;28;20017;-66
2023/12/12 04:33:29;;;;;;;42.75;28.75;;;;;;;7.82;100.00;95482.22;5031357;28;20033;-66
2023/12/12 04:35:55;;;;;;;31.83;28.58;;;;;;;7.81;100.00;95478.78;5026394;28;20104;-66
2023/12/12 04:38:20;;;;;;;30.52;27.42;;;;;;;7.85;100.00;95481.97;5026819;28;20029;-65
2023/12/12 04:40:45;;;;;;;30.50;27.23;;;;;;;7.85;100.00;95485.41;5030743;28;20037;-66
2023/12/12 04:43:11;;;;;;;34.15;30.35;;;;;;;7.88;100.00;95484.34;5026923;28;20430;-66
2023/12/12 04:45:36;;;;;;;40.15;31.33;;;;;;;7.86;100.00;95494.13;5033940;28;20034;-66
2023/12/12 04:48:03;;;;;;;36.90;31.05;;;;;;;7.85;100.00;95484.59;5033389;28;20075;-66
2023/12/12 04:50:28;;;;;;;37.17;29.23;;;;;;;7.85;100.00;95484.59;5043683;28;20026;-66
2023/12/12 04:52:53;;;;;;;37.42;31.70;;;;;;;7.84;100.00;95470.66;5029669;28;20061;-65
2023/12/12 04:55:19;;;;;;;41.08;29.35;;;;;;;7.84;100.00;95468.03;5041777;28;20029;-66
2023/12/12 04:57:45;;;;;;;38.53;31.23;;;;;;;7.84;100.00;95461.94;5028107;28;20459;-66
2023/12/12 05:00:14;;;;;;;42.60;35.92;;;;;;;7.82;100.00;95459.47;5027737;28;20064;-66
2023/12/12 05:02:42;;;;;;;45.85;36.03;;;;;;;7.84;100.00;95461.94;5032487;28;20691;-68
2023/12/12 05:05:08;;;;;;;42.60;33.97;;;;;;;7.86;100.00;95460.06;5024202;28;20110;-66
2023/12/12 05:07:34;;;;;;;39.47;31.60;;;;;;;7.86;100.00;95454.81;5026174;28;20544;-66
2023/12/12 05:10:00;;;;;;;43.40;33.30;;;;;;;7.86;100.00;95460.06;5029434;28;20104;-66
2023/12/12 05:12:25;;;;;;;44.67;34.75;;;;;;;7.84;100.00;95469.81;5028091;28;20564;-66
2023/12/12 05:14:51;;;;;;;46.80;34.33;;;;;;;7.82;100.00;95453.38;5031347;28;20026;-65
2023/12/12 05:17:16;;;;;;;130.02;35.13;;;;;;;7.81;100.00;95460.44;5032386;28;20029;-66
2023/12/12 05:19:42;;;;;;;52.80;33.67;;;;;;;7.77;100.00;95455.56;5014522;28;20105;-66
2023/12/12 05:22:07;;;;;;;57.58;32.90;;;;;;;7.77;100.00;95472.16;5033004;28;20072;-66
2023/12/12 05:24:33;;;;;;;51.67;41.03;;;;;;;7.74;100.00;95477.66;5026066;28;20056;-66
2023/12/12 05:26:59;;;;;;;71.85;43.92;;;;;;;7.82;100.00;95471.72;5020480;28;20060;-66
2023/12/12 05:29:24;;;;;;;71.47;41.40;;;;;;;7.85;100.00;95461.00;5024124;28;20041;-66
2023/12/12 05:31:49;;;;;;;55.83;40.42;;;;;;;7.84;100.00;95457.56;5025962;28;20048;-65
2023/12/12 05:34:15;;;;;;;54.03;40.80;;;;;;;7.82;100.00;95454.22;5024106;28;20061;-66
2023/12/12 05:36:40;;;;;;;56.20;44.63;;;;;;;7.80;100.00;95453.53;5023232;28;20636;-66
2023/12/12 05:39:05;;;;;;;52.47;43.60;;;;;;;7.80;100.00;95450.06;5027745;28;20029;-66
2023/12/12 05:41:31;;;;;;;50.63;42.15;;;;;;;7.78;100.00;95457.25;5031590;28;20116;-66
2023/12/12 05:43:57;;;;;;;49.15;40.45;;;;;;;7.81;100.00;95462.22;5026176;28;20025;-66
2023/12/12 05:46:23;;;;;;;47.50;38.80;;;;;;;7.82;100.00;95469.13;5022655;28;20018;-66
2023/12/12 05:48:49;;;;;;;43.50;34.97;;;;;;;7.88;100.00;95471.22;5026762;28;20025;-66
2023/12/12 05:51:14;;;;;;;41.45;33.90;;;;;;;7.83;100.00;95470.78;5023011;28;20510;-66
2023/12/12 05:53:41;;;;;;;35.65;31.85;;;;;;;7.80;100.00;95473.66;5024896;28;20045;-65
2023/12/12 05:56:07;;;;;;;34.97;30.85;;;;;;;7.79;100.00;95472.84;5028252;28;20036;-66
2023/12/12 05:58:32;;;;;;;34.47;29.20;;;;;;;7.80;100.00;95471.88;5029529;28;20029;-66
2023/12/12 06:00:57;;;;;;;30.23;26.92;;;;;;;7.82;100.00;95474.34;5029354;28;20363;-66
2023/12/12 06:03:23;;;;;;;30.55;27.25;;;;;;;7.79;100.00;95472.00;5031907;28;20037;-66
2023/12/12 06:05:48;;;;;;;34.50;29.63;;;;;;;7.79;100.00;95464.13;5023966;28;20029;-66
2023/12/12 06:08:13;;;;;;;37.85;33.03;;;;;;;7.76;100.00;95446.06;5031489;28;20491;-66
2023/12/12 06:10:39;;;;;;;33.70;28.27;;;;;;;7.80;100.00;95439.59;5026883;28;20116;-66
2023/12/12 06:13:04;;;;;;;30.92;27.60;;;;;;;7.74;100.00;95446.22;5029923;28;20036;-66
2023/12/12 06:15:29;;;;;;;31.63;26.33;;;;;;;7.72;100.00;95437.63;5026528;28;20037;-66
2023/12/12 06:17:55;;;;;;;31.02;27.70;;;;;;;7.69;100.00;95441.34;5028937;28;20029;-66
2023/12/12 06:20:20;;;;;;;104.22;22.40;;;;;;;7.65;100.00;95442.56;5025613;28;20577;-66
2023/12/12 06:22:45;;;;;;;48.45;25.60;;;;;;;7.63;100.00;95457.59;5026911;28;20041;-66
2023/12/12 06:25:11;;;;;;;46.15;27.65;;;;;;;7.60;100.00;95460.44;5026686;28;20033;-65
2023/12/12 06:27:36;;;;;;;32.10;27.55;;;;;;;7.64;100.00;95461.88;5029487;28;20033;-66
2023/12/12 06:30:02;;;;;;;26.60;24.00;;;;;;;7.71;100.00;95468.25;5022623;28;20490;-66
2023/12/12 06:32:28;;;;;;;26.63;23.85;;;;;;;7.73;100.00;95473.34;5028148;28;20041;-66
2023/12/12 06:34:53;;;;;;;34.22;30.88;;;;;;;7.73;100.00;95473.34;5025032;28;20030;-65
2023/12/12 06:37:19;;;;;;;34.60;30.75;;;;;;;7.73;100.00;95465.47;5033362;28;20033;-64
2023/12/12 06:39:44;;;;;;;33.88;30.02;;;;;;;7.74;100.00;95472.41;5030207;28;20032;-65
2023/12/12 06:42:09;;;;;;;33.20;29.77;;;;;;;7.73;100.00;95466.31;5028052;28;20477;-64
2023/12/12 06:44:36;;;;;;;33.45;30.05;;;;;;;7.72;100.00;95474.31;5023681;28;20113;-67
2023/12/12 06:47:02;;;;;;;30.92;27.67;;;;;;;7.70;100.00;95492.78;5028398;28;20048;-65
2023/12/12 06:49:27;;;;;;;30.65;27.52;;;;;;;7.72;100.00;95488.25;5026159;28;20479;-66
2023/12/12 06:51:52;;;;;;;34.13;30.80;;;;;;;7.71;100.00;95496.22;5002325;28;20478;-67
2023/12/12 06:54:18;;;;;;;125.13;112.68;;;;;;;7.72;100.00;95498.72;5032615;28;20053;-66
2023/12/12 06:56:43;;;;;;;87.10;78.82;;;;;;;7.80;100.00;95503.34;5030680;28;20026;-65
2023/12/12 06:59:09;;;;;;;41.75;37.70;;;;;;;7.86;100.00;95492.31;5030493;28;20387;-66
2023/12/12 07:01:34;;;;;;;36.17;32.67;;;;;;;7.80;100.00;95486.75;5035559;28;20037;-65
2023/12/12 07:03:59;;;;;;;27.80;25.20;;;;;;;7.78;100.00;95488.69;5033895;28;20045;-65
2023/12/12 07:06:25;;;;;;;25.98;23.38;;;;;;;7.73;100.00;95482.03;5025798;28;20022;-65
2023/12/12 07:08:51;;;;;;;42.47;36.88;;;;;;;7.69;100.00;95491.13;5032176;28;20037;-66
2023/12/12 07:11:17;;;;;;;48.63;43.72;;;;;;;7.64;100.00;95490.69;5032203;28;20104;-66
2023/12/12 07:13:42;;;;;;;29.83;26.83;;;;;;;7.65;100.00;95505.47;5037171;28;20029;-65
2023/12/12 07:16:10;;;;;;;27.08;23.65;;;;;;;7.62;100.00;95494.38;5034603;28;20099;-66
2023/12/12 07:18:39;;;;;;;28.92;24.70;;;;;;;7.61;100.00;95493.53;5030049;28;20036;-66
2023/12/12 07:21:05;;;;;;;25.98;23.38;;;;;;;7.63;100.00;95496.91;5031916;28;20033;-65
2023/12/12 07:23:31;;;;;;;23.42;21.13;;;;;;;7.67;100.00;95494.81;5037395;28;20036;-64
2023/12/12 07:25:57;;;;;;;20.30;18.40;;;;;;;7.70;100.00;95497.19;5027651;28;20093;-65
2023/12/12 07:28:23;;;;;;;17.75;16.17;;;;;;;7.73;100.00;95515.28;5025428;28;20029;-65
2023/12/12 07:30:49;;;;;;;50.97;46.08;;;;;;;7.79;100.00;95513.94;5028940;28;20029;-65
2023/12/12 07:33:14;;;;;;;46.65;42.05;;;;;;;7.79;100.00;95517.41;5027268;28;20038;-65
2023/12/12 07:35:40;;;;;;;28.75;26.08;;;;;;;7.81;100.00;95525.13;5028993;28;20030;-64
2023/12/12 07:38:05;;;;;;;33.72;30.58;;;;;;;7.81;100.00;95525.97;5030684;28;20029;-65
2023/12/12 07:40:30;;;;;;;27.42;24.60;;;;;;;7.82;100.00;95513.66;5030196;28;20405;-65
2023/12/12 07:42:57;;;;;;;26.05;23.48;;;;;;;7.80;100.00;95523.44;5025559;28;20089;-66
2023/12/12 07:45:22;;;;;;;26.15;23.48;;;;;;;7.82;100.00;95513.66;5026355;28;20486;-65
2023/12/12 07:47:48;;;;;;;39.58;28.23;;;;;;;7.83;100.00;95512.72;5026613;28;20131;-66
2023/12/12 07:50:16;;;;;;;87.28;35.25;;;;;;;7.89;100.00;95525.31;5025615;28;20037;-67
2023/12/12 07:52:42;;;;;;;83.72;40.85;;;;;;;7.78;100.00;95520.97;5030472;28;20107;-65
2023/12/12 07:55:08;;;;;;;52.70;39.20;;;;;;;7.77;100.00;95521.09;5028723;28;20037;-65
2023/12/12 07:57:33;;;;;;;37.90;33.88;;;;;;;7.76;100.00;95522.91;5032460;28;20036;-65
2023/12/12 07:59:59;;;;;;;107.07;39.63;;;;;;;7.70;100.00;95524.25;5030460;28;20756;-65
2023/12/12 08:02:24;;;;;;;43.13;34.45;;;;;;;7.70;100.00;95520.78;5023253;28;20036;-65
2023/12/12 08:04:49;;;;;;;141.38;35.05;;;;;;;7.72;100.00;95505.75;5024418;28;20045;-66
2023/12/12 08:07:16;;;;;;;314.60;46.05;;;;;;;7.68;100.00;95505.19;5020474;28;20038;-66
2023/12/12 08:09:42;;;;;;;101.93;40.95;;;;;;;7.68;100.00;95510.44;5027843;28;20025;-66
2023/12/12 08:12:07;;;;;;;43.03;36.53;;;;;;;7.72;100.00;95516.22;5025952;28;20121;-65
2023/12/12 08:14:33;;;;;;;63.30;48.30;;;;;;;7.74;100.00;95514.34;5020105;28;20034;-67
2023/12/12 08:16:58;;;;;;;62.58;35.90;;;;;;;7.76;100.00;95517.66;5023262;28;20050;-66
2023/12/12 08:19:23;;;;;;;45.58;36.05;;;;;;;7.76;100.00;95512.41;5022734;28;20036;-67
2023/12/12 08:21:49;;;;;;;50.45;38.00;;;;;;;7.79;100.00;95511.31;5024760;28;20119;-66
2023/12/12 08:24:15;;;;;;;50.90;36.53;;;;;;;7.78;100.00;95499.16;5021537;28;20223;-66
2023/12/12 08:26:46;;;;;;;74.13;37.53;;;;;;;7.78;100.00;95494.78;5025954;28;20022;-66
2023/12/12 08:29:12;;;;;;;39.13;34.05;;;;;;;7.77;100.00;95489.66;5023586;28;20033;-66
2023/12/12 08:31:38;;;;;;;41.42;35.83;;;;;;;7.80;100.00;95486.75;5027571;28;20030;-66
2023/12/12 08:34:04;;;;;;;83.03;70.82;;;;;;;7.81;100.00;95501.53;5028462;28;20504;-66
2023/12/12 08:36:29;;;;;;;52.85;42.95;;;;;;;7.80;100.00;95486.75;5030903;28;20087;-66
2023/12/12 08:38:55;;;;;;;51.05;41.78;;;;;;;7.82;100.00;95480.44;5019286;28;20438;-66
2023/12/12 08:41:21;;;;;;;51.58;45.92;;;;;;;7.84;100.00;95485.53;5023272;28;20018;-66
2023/12/12 08:43:46;;;;;;;65.72;52.08;;;;;;;7.84;100.00;95489.00;5027937;28;20026;-66
2023/12/12 08:46:12;;;;;;;61.50;48.97;;;;;;;7.87;100.00;95498.41;5026544;28;20057;-67
2023/12/12 08:48:37;;;;;;;44.08;36.33;;;;;;;7.89;100.00;95499.09;5025048;28;20131;-66
2023/12/12 08:51:03;;;;;;;92.93;39.65;;;;;;;7.86;100.00;95494.13;5024386;28;20104;-66
2023/12/12 08:53:29;;;;;;;48.28;36.63;;;;;;;7.83;100.00;95494.34;5025072;28;20120;-66
2023/12/12 08:55:55;;;;;;;42.80;34.88;;;;;;;7.88;100.00;95500.06;5029549;28;20028;-66
2023/12/12 08:58:25;;;;;;;42.53;35.88;;;;;;;7.90;100.00;95500.75;5028149;28;20026;-66
2023/12/12 09:00:54;;;;;;;115.18;81.82;;;;;;;7.89;100.00;95496.47;5028422;28;20037;-66
2023/12/12 09:03:19;;;;;;;54.05;44.38;;;;;;;7.88;100.00;95503.50;5022236;28;20053;-66
2023/12/12 09:05:44;;;;;;;69.00;53.30;;;;;;;7.91;100.00;95498.97;5022385;28;20038;-66
2023/12/12 09:08:10;;;;;;;83.10;39.47;;;;;;;7.96;100.00;95495.00;5022646;28;20025;-66
2023/12/12 09:10:36;;;;;;;75.85;44.22;;;;;;;8.03;100.00;95487.44;5020831;28;20094;-65
2023/12/12 09:13:02;;;;;;;173.43;99.65;;;;;;;7.95;100.00;95492.50;5025416;28;20025;-65
2023/12/12 09:15:27;;;;;;;71.30;49.72;;;;;;;7.95;100.00;95490.72;5027238;28;20036;-66
2023/12/12 09:17:53;;;;;;;63.13;45.38;;;;;;;7.97;100.00;95486.16;5023334;28;20083;-65
2023/12/12 09:20:18;;;;;;;135.00;103.35;;;;;;;8.03;100.00;95482.19;5026214;28;20617;-66
2023/12/12 09:22:43;;;;;;;151.85;109.82;;;;;;;8.05;100.00;95482.91;5025872;28;20030;-66
2023/12/12 09:25:09;;;;;;;149.82;108.82;;;;;;;8.06;100.00;95473.22;5028535;28;20025;-66
2023/12/12 09:27:34;;;;;;;65.82;52.28;;;;;;;8.12;100.00;95476.16;5027166;28;20038;-66
2023/12/12 09:30:00;;;;;;;65.93;55.97;;;;;;;8.12;100.00;95477.97;5025539;28;20106;-66
2023/12/12 09:32:26;;;;;;;59.80;50.45;;;;;;;8.14;100.00;95478.66;5029296;28;20018;-66
2023/12/12 09:34:51;;;;;;;98.25;78.63;;;;;;;8.13;100.00;95472.56;5021088;28;20045;-66
2023/12/12 09:37:17;;;;;;;99.78;88.97;;;;;;;8.17;100.00;95471.34;5029259;28;20101;-66
2023/12/12 09:39:42;;;;;;;67.30;56.78;;;;;;;8.23;100.00;95464.72;5023644;28;20102;-66
2023/12/12 09:42:14;;;;;;;63.13;55.00;;;;;;;8.24;100.00;95449.84;5026172;28;20061;-66
2023/12/12 09:44:42;;;;;;;77.07;66.93;;;;;;;8.28;100.00;95456.47;5019447;28;20060;-66
2023/12/12 09:47:08;;;;;;;103.72;61.25;;;;;;;8.27;100.00;95441.72;5025305;28;20049;-66
2023/12/12 09:49:34;;;;;;;65.57;57.33;;;;;;;8.29;100.00;95439.78;5024296;28;20040;-66
2023/12/12 09:52:01;;;;;;;93.13;83.00;;;;;;;8.36;100.00;95445.31;5021576;28;20024;-66
2023/12/12 09:54:28;;;;;;;55.13;47.50;;;;;;;8.44;100.00;95442.84;5023822;28;20128;-66
2023/12/12 09:56:54;;;;;;;70.18;59.92;;;;;;;8.45;100.00;95429.59;5022818;28;20049;-66
2023/12/12 09:59:20;;;;;;;42.83;37.90;;;;;;;8.45;100.00;95423.50;5029011;28;20034;-68
2023/12/12 10:01:48;;;;;;;44.75;40.10;;;;;;;8.42;100.00;95423.78;5026447;28;20486;-67
2023/12/12 10:04:17;;;;;;;48.70;43.58;;;;;;;8.42;100.00;95421.16;5017344;28;20395;-66
2023/12/12 10:06:49;;;;;;;121.28;75.32;;;;;;;8.40;100.00;95426.56;5021730;28;20021;-67
2023/12/12 10:09:15;;;;;;;53.63;42.90;;;;;;;8.41;100.00;95424.75;5020673;28;20574;-66
2023/12/12 10:11:40;;;;;;;47.28;40.95;;;;;;;8.40;100.00;95408.19;5024635;28;20021;-66
2023/12/12 10:14:06;;;;;;;76.53;64.90;;;;;;;8.38;100.00;95406.66;5020126;28;20036;-66
2023/12/12 10:16:32;;;;;;;73.90;58.00;;;;;;;8.37;100.00;95405.00;5026854;28;20466;-66
2023/12/12 10:19:01;;;;;;;60.53;54.13;;;;;;;8.44;100.00;95372.84;5027723;28;20478;-66
2023/12/12 10:21:28;;;;;;;60.92;51.45;;;;;;;8.51;100.00;95365.31;5025258;28;20037;-66
2023/12/12 10:23:54;;;;;;;39.08;34.88;;;;;;;8.60;100.00;95361.84;5027661;28;20026;-66
2023/12/12 10:26:32;;;;;;;39.90;35.88;;;;;;;8.76;100.00;95362.25;5022504;28;20112;-66
2023/12/12 10:28:59;;;;;;;44.78;40.05;;;;;;;8.87;100.00;95357.69;5024569;28;20615;-66
2023/12/12 10:31:24;;;;;;;33.30;29.90;;;;;;;8.93;100.00;95358.09;5025519;28;20465;-66
2023/12/12 10:33:50;;;;;;;23.27;21.08;;;;;;;8.96;100.00;95358.66;5019274;28;20057;-66
2023/12/12 10:36:16;;;;;;;29.30;26.40;;;;;;;9.04;100.00;95350.06;5025928;28;20034;-66
2023/12/12 10:38:41;;;;;;;33.58;30.48;;;;;;;9.12;100.00;95354.63;5026619;28;20063;-66
2023/12/12 10:41:13;;;;;;;29.17;26.42;;;;;;;9.20;100.00;95356.53;5027030;28;20083;-66
2023/12/12 10:43:42;;;;;;;25.63;23.25;;;;;;;9.21;100.00;95348.50;5021391;28;20095;-66
2023/12/12 10:46:12;;;;;;;25.10;22.70;;;;;;;9.26;100.00;95353.34;5021413;28;20025;-66
2023/12/12 10:48:41;;;;;;;23.58;21.27;;;;;;;9.27;100.00;95349.75;5018062;28;20040;-66
2023/12/12 10:51:07;;;;;;;20.38;18.58;;;;;;;9.32;100.00;95353.59;5026083;28;20033;-66
2023/12/12 10:53:35;;;;;;;31.27;28.02;;;;;;;9.36;100.00;95353.31;5028360;28;20042;-66
2023/12/12 10:56:01;;;;;;;42.60;38.50;;;;;;;9.32;100.00;95350.97;5023179;28;20394;-66
2023/12/12 10:58:26;;;;;;;39.30;35.63;;;;;;;9.39;100.00;95353.03;5019271;28;20237;-66
2023/12/12 11:00:53;;;;;;;33.17;29.98;;;;;;;9.29;100.00;95353.91;5024595;28;20248;-66
2023/12/12 11:03:21;;;;;;;36.15;32.38;;;;;;;9.22;100.00;95363.28;5017988;28;20505;-66
2023/12/12 11:05:47;;;;;;;34.13;31.05;;;;;;;9.24;100.00;95365.78;5019848;28;20025;-66
2023/12/12 11:08:13;;;;;;;39.85;36.45;;;;;;;9.24;100.00;95371.03;5020436;28;20880;-66
2023/12/12 11:10:38;;;;;;;30.77;27.98;;;;;;;9.22;100.00;95373.00;5027290;28;20022;-66